Time;durP1;ratioP1;P1;durP2;ratioP2;P2;SDS_P1;SDS_P2;PMS_P1;PMS_P2;Temp;Humidity;BMP_temperature;BMP_pressure;BME280_temperature;BME280_humidity;BME280_pressure;Samples;Min_cycle;Max_cycle;Signal;HPM_P1;HPM_P2
2023/07/08 00:09:21;;;;;;;7.03;5.90;;;20.20;57.60;;;;;;20896219;28;20334;-66
2023/07/08 00:19:23;;;;;;;8.30;6.03;;;20.10;57.90;;;;;;20912596;28;20207;-64
2023/07/08 00:29:25;;;;;;;8.97;6.00;;;20.00;58.40;;;;;;20913080;28;20697;-63
2023/07/08 00:39:27;;;;;;;7.93;6.00;;;19.90;58.80;;;;;;20912232;28;20298;-66
2023/07/08 00:49:34;;;;;;;10.83;5.77;;;19.70;58.90;;;;;;20911952;28;20617;-69
2023/07/08 00:59:42;;;;;;;9.53;5.70;;;19.50;59.50;;;;;;20912002;28;20288;-62
2023/07/08 01:09:46;;;;;;;9.20;5.77;;;19.40;60.00;;;;;;20893413;28;20288;-61
2023/07/08 01:19:48;;;;;;;9.60;5.70;;;19.40;60.60;;;;;;20910765;28;20296;-62
2023/07/08 01:29:50;;;;;;;10.07;5.33;;;;;;;;;;20922739;28;20234;-59
2023/07/08 01:39:52;;;;;;;7.70;5.77;;;19.10;61.60;;;;;;20925655;28;20302;-58
2023/07/08 01:49:54;;;;;;;6.97;5.53;;;;;;;;;;20924864;28;20769;-64
2023/07/08 01:59:56;;;;;;;9.10;5.80;;;;;;;;;;20924517;28;20211;-61
2023/07/08 02:09:58;;;;;;;8.10;5.57;;;18.80;63.20;;;;;;20923059;28;20602;-61
2023/07/08 02:20:00;;;;;;;10.10;5.50;;;18.80;63.70;;;;;;20922813;28;20293;-60
2023/07/08 02:30:02;;;;;;;8.83;5.47;;;;;;;;;;20922148;28;20732;-60
2023/07/08 02:40:04;;;;;;;8.43;5.47;;;15.30;61.30;;;;;;20919891;28;20215;-64
2023/07/08 02:50:08;;;;;;;9.40;5.37;;;18.40;65.40;;;;;;20919841;28;20232;-59
2023/07/08 03:00:13;;;;;;;7.43;5.17;;;18.40;66.00;;;;;;20919512;28;20213;-58
2023/07/08 03:10:15;;;;;;;7.60;5.77;;;;;;;;;;20918622;28;20356;-58
2023/07/08 03:20:17;;;;;;;9.47;5.80;;;;;;;;;;20917733;28;20209;-59
2023/07/08 03:30:19;;;;;;;10.40;5.53;;;18.10;67.50;;;;;;20916979;28;20243;-62
2023/07/08 03:40:21;;;;;;;11.50;5.70;;;;;;;;;;20916645;28;20707;-65
2023/07/08 03:50:25;;;;;;;7.83;5.53;;;18.00;69.20;;;;;;20915219;28;20778;-61
2023/07/08 04:00:27;;;;;;;7.10;5.47;;;;;;;;;;20914840;28;20567;-59
2023/07/08 04:10:29;;;;;;;10.00;5.37;;;;;;;;;;20913982;28;20238;-68
2023/07/08 04:20:32;;;;;;;8.90;5.60;;;;;;;;;;20913730;28;20213;-59
2023/07/08 04:30:40;;;;;;;7.83;5.30;;;18.00;71.10;;;;;;20913127;28;20269;-66
2023/07/08 04:40:43;;;;;;;8.07;5.50;;;;;;;;;;20913032;28;20220;-61
2023/07/08 04:50:46;;;;;;;7.50;5.63;;;18.00;71.10;;;;;;20912314;28;20328;-59
2023/07/08 05:00:49;;;;;;;9.80;5.50;;;;;;;;;;20918225;28;20206;-66
2023/07/08 05:10:51;;;;;;;9.83;6.70;;;;;;;;;;20928054;28;20265;-62
2023/07/08 05:20:54;;;;;;;11.90;5.93;;;19.20;71.60;;;;;;20927264;28;20301;-67
2023/07/08 05:30:56;;;;;;;7.57;5.90;;;19.40;71.10;;;;;;20924792;28;20249;-65
2023/07/08 05:40:59;;;;;;;9.10;6.43;;;19.70;70.60;;;;;;20925774;28;20344;-69
2023/07/08 05:51:01;;;;;;;13.77;6.60;;;20.10;69.70;;;;;;20924578;28;20236;-72
2023/07/08 06:01:03;;;;;;;9.73;6.30;;;20.10;70.20;;;;;;20922567;28;20663;-68
2023/07/08 06:11:06;;;;;;;9.70;5.90;;;20.40;69.20;;;;;;20923467;28;20748;-65
2023/07/08 06:21:07;;;;;;;10.70;6.23;;;20.80;67.70;;;;;;20922712;28;20207;-61
2023/07/08 06:31:10;;;;;;;13.07;6.57;;;21.10;66.20;;;;;;20921569;28;20232;-65
2023/07/08 06:41:12;;;;;;;19.03;5.50;;;21.30;65.10;;;;;;20920022;28;20215;-62
2023/07/08 06:51:13;;;;;;;7.63;5.20;;;21.60;64.30;;;;;;20920084;28;20264;-62
2023/07/08 07:01:15;;;;;;;6.77;5.00;;;22.10;62.70;;;;;;20919518;28;20232;-62
2023/07/08 07:11:19;;;;;;;9.50;5.67;;;22.50;60.60;;;;;;20918885;28;20248;-66
2023/07/08 07:21:21;;;;;;;9.43;5.00;;;22.90;59.40;;;;;;20919388;28;20295;-72
2023/07/08 07:31:23;;;;;;;6.33;4.73;;;23.30;58.70;;;;;;20920276;28;20326;-72
2023/07/08 07:41:25;;;;;;;6.37;4.70;;;23.70;57.70;;;;;;20916273;28;20277;-63
2023/07/08 07:51:26;;;;;;;7.93;5.03;;;24.00;57.20;;;;;;20915241;28;20235;-66
2023/07/08 08:01:28;;;;;;;9.27;4.63;;;24.00;56.80;;;;;;20913518;28;20232;-67
2023/07/08 08:11:31;;;;;;;6.20;4.70;;;24.50;56.20;;;;;;20896219;28;20239;-61
2023/07/08 08:21:32;;;;;;;6.67;4.77;;;25.20;55.60;;;;;;20913217;28;20564;-70
2023/07/08 08:31:34;;;;;;;10.27;5.03;;;25.20;55.40;;;;;;20912526;28;20245;-72
2023/07/08 08:41:38;;;;;;;7.00;5.07;;;25.20;55.20;;;;;;20910794;28;20295;-64
2023/07/08 08:51:40;;;;;;;10.67;5.80;;;25.30;55.10;;;;;;20911581;28;20318;-69
2023/07/08 09:01:43;;;;;;;9.80;5.10;;;25.60;54.60;;;;;;20893916;28;20287;-70
2023/07/08 09:11:59;;;;;;;7.07;4.67;;;25.70;54.50;;;;;;20911523;28;20243;-68
2023/07/08 09:22:20;;;;;;;13.00;5.07;;;25.70;54.40;;;;;;20846172;28;20212;-67
2023/07/08 09:32:27;;;;;;;14.20;4.93;;;25.70;54.10;;;;;;20826199;28;20504;-73
2023/07/08 09:42:32;;;;;;;9.20;5.50;;;26.20;52.10;;;;;;20810759;28;20299;-69
2023/07/08 09:52:34;;;;;;;18.80;5.47;;;26.10;52.60;;;;;;20876754;28;20587;-68
2023/07/08 10:02:35;;;;;;;13.43;8.23;;;26.40;51.90;;;;;;20927428;28;20310;-67
2023/07/08 10:12:40;;;;;;;11.07;5.03;;;26.60;51.30;;;;;;20923942;28;20263;-66
2023/07/08 10:23:07;;;;;;;12.93;5.43;;;26.60;51.10;;;;;;20922497;28;20295;-61
2023/07/08 10:33:24;;;;;;;22.63;5.80;;;26.70;51.00;;;;;;20921612;28;20239;-61
2023/07/08 10:44:00;;;;;;;18.33;5.47;;;26.90;50.30;;;;;;20921250;28;20710;-68
2023/07/08 10:54:21;;;;;;;9.13;5.17;;;27.10;50.00;;;;;;20873109;28;20243;-64
2023/07/08 11:04:42;;;;;;;8.73;4.93;;;27.10;49.60;;;;;;20844004;28;20246;-69
2023/07/08 11:15:11;;;;;;;9.03;5.13;;;27.30;49.00;;;;;;20918113;28;20216;-70
2023/07/08 11:25:18;;;;;;;6.70;5.18;;;27.30;48.90;;;;;;20907695;28;20641;-68
2023/07/08 11:35:25;;;;;;;5.80;4.90;;;27.40;47.90;;;;;;20916792;28;20243;-76
2023/07/08 11:45:32;;;;;;;21.93;4.87;;;27.60;46.60;;;;;;20916017;28;20786;-79
2023/07/08 11:56:09;;;;;;;9.63;4.70;;;27.80;46.20;;;;;;20915979;28;20223;-76
2023/07/08 12:06:26;;;;;;;5.65;4.70;;;28.20;45.00;;;;;;20881057;28;20609;-72
2023/07/08 12:16:32;;;;;;;8.30;4.90;;;28.80;42.60;;;;;;20913502;28;20638;-75
2023/07/08 12:26:34;;;;;;;6.25;4.50;;;29.50;40.40;;;;;;20911586;28;20634;-68
2023/07/08 12:36:36;;;;;;;6.28;4.25;;;30.30;37.60;;;;;;20912953;28;20622;-68
2023/07/08 12:46:39;;;;;;;8.55;4.90;;;30.30;37.90;;;;;;20894959;28;20235;-68
2023/07/08 12:56:45;;;;;;;8.52;4.80;;;30.50;37.30;;;;;;20911959;28;20207;-67
2023/07/08 13:06:47;;;;;;;9.50;4.72;;;30.40;37.20;;;;;;20911222;28;20239;-71
2023/07/08 13:16:49;;;;;;;8.90;4.35;;;30.50;37.10;;;;;;20911342;28;20204;-70
2023/07/08 13:26:51;;;;;;;8.52;4.65;;;30.30;37.10;;;;;;20925002;28;20227;-74
2023/07/08 13:36:54;;;;;;;5.82;4.68;;;30.80;36.70;;;;;;20926224;28;20299;-76
2023/07/08 13:46:58;;;;;;;8.68;4.80;;;30.90;36.40;;;;;;20925353;28;20239;-78
2023/07/08 13:57:02;;;;;;;6.20;4.35;;;31.20;36.00;;;;;;20925021;28;20239;-77
2023/07/08 14:07:09;;;;;;;7.38;4.43;;;31.20;35.50;;;;;;20923417;28;20255;-78
2023/07/08 14:17:14;;;;;;;6.40;4.05;;;31.00;35.00;;;;;;20923107;28;20247;-73
2023/07/08 14:27:17;;;;;;;8.15;4.00;;;31.60;34.50;;;;;;20905794;28;20729;-77
2023/07/08 14:37:19;;;;;;;13.68;4.35;;;33.50;33.30;;;;;;20920236;28;20212;-76
2023/07/08 14:47:21;;;;;;;7.60;4.45;;;33.30;33.40;;;;;;20920437;28;20240;-77
2023/07/08 14:57:32;;;;;;;8.63;4.38;;;32.90;33.60;;;;;;20845747;28;20201;-73
2023/07/08 15:07:34;;;;;;;6.97;4.80;;;32.70;33.90;;;;;;20878540;28;20249;-72
2023/07/08 15:17:35;;;;;;;7.25;4.35;;;33.80;33.00;;;;;;20920095;28;20214;-67
2023/07/08 15:27:39;;;;;;;7.20;4.60;;;34.00;32.50;;;;;;20920887;28;20235;-70
2023/07/08 15:37:42;;;;;;;7.63;4.47;;;34.90;31.80;;;;;;20916988;28;20208;-74
2023/07/08 15:47:44;;;;;;;5.55;4.15;;;34.00;32.60;;;;;;20897944;28;20253;-67
2023/07/08 15:57:50;;;;;;;5.03;4.15;;;33.50;32.90;;;;;;20915760;28;20667;-67
2023/07/08 16:07:53;;;;;;;8.80;4.55;;;33.60;32.90;;;;;;20913892;28;20718;-68
2023/07/08 16:17:57;;;;;;;4.80;3.97;;;34.70;32.20;;;;;;20913956;28;20200;-67
2023/07/08 16:28:00;;;;;;;10.15;3.90;;;38.60;29.50;;;;;;20913092;28;20330;-66
2023/07/08 16:38:02;;;;;;;5.40;3.95;;;41.80;27.20;;;;;;20913119;28;20212;-70
2023/07/08 16:48:03;;;;;;;4.88;3.97;;;37.50;28.90;;;;;;20912119;28;20271;-68
2023/07/08 16:58:09;;;;;;;8.50;4.95;;;36.30;29.60;;;;;;20919941;28;20570;-68
2023/07/08 17:08:15;;;;;;;7.20;4.10;;;35.70;30.10;;;;;;20928722;28;20338;-70
2023/07/08 17:18:21;;;;;;;5.47;4.00;;;38.60;28.40;;;;;;20927753;28;20210;-72
2023/07/08 17:28:22;;;;;;;5.78;4.50;;;39.50;27.80;;;;;;20926902;28;20717;-68
2023/07/08 17:38:46;;;;;;;7.78;4.30;;;39.00;27.80;;;;;;20926709;28;20307;-69
2023/07/08 17:48:50;;;;;;;6.50;4.00;;;35.00;30.20;;;;;;20926491;28;20640;-69
2023/07/08 17:58:53;;;;;;;8.82;4.85;;;33.10;32.00;;;;;;20925785;28;20251;-75
2023/07/08 18:08:55;;;;;;;5.45;3.90;;;31.90;33.50;;;;;;20928088;28;20282;-67
2023/07/08 18:18:57;;;;;;;10.27;4.70;;;31.20;34.80;;;;;;20923093;28;20204;-64
2023/07/08 18:29:00;;;;;;;9.52;4.30;;;30.60;36.20;;;;;;20922328;28;20595;-66
2023/07/08 18:39:03;;;;;;;8.40;4.13;;;30.20;37.30;;;;;;20904170;28;20557;-64
2023/07/08 18:49:07;;;;;;;9.32;5.43;;;30.10;38.10;;;;;;20921369;28;20540;-69
2023/07/08 18:59:09;;;;;;;9.73;4.38;;;29.90;39.70;;;;;;20917423;28;20294;-68
2023/07/08 19:09:11;;;;;;;11.50;6.20;;;29.40;41.50;;;;;;20915513;28;20239;-69
2023/07/08 19:19:13;;;;;;;11.50;8.50;;;28.80;43.20;;;;;;20914307;28;20566;-66
2023/07/08 19:29:15;;;;;;;29.50;8.90;;;28.40;44.30;;;;;;20913749;28;20697;-65
2023/07/08 19:39:17;;;;;;;7.95;6.32;;;28.00;45.30;;;;;;20915012;28;20286;-66
2023/07/08 19:49:19;;;;;;;14.07;6.57;;;27.60;47.10;;;;;;20914108;28;20234;-68
2023/07/08 19:59:21;;;;;;;14.27;5.30;;;27.30;48.20;;;;;;20913335;28;20216;-66
2023/07/08 20:09:23;;;;;;;11.40;4.80;;;27.10;49.20;;;;;;20912794;28;20326;-66
2023/07/08 20:19:27;;;;;;;7.60;6.10;;;26.90;49.80;;;;;;20912107;28;20211;-67
2023/07/08 20:29:29;;;;;;;9.83;4.73;;;26.70;50.30;;;;;;20911726;28;20239;-70
2023/07/08 20:39:31;;;;;;;9.93;4.70;;;26.40;51.00;;;;;;20912605;28;20721;-65
2023/07/08 20:49:33;;;;;;;8.67;5.77;;;26.30;51.60;;;;;;20912524;28;20609;-63
2023/07/08 20:59:34;;;;;;;8.67;5.03;;;26.00;52.10;;;;;;20894434;28;20247;-63
2023/07/08 21:09:36;;;;;;;13.57;5.57;;;25.90;52.60;;;;;;20911639;28;20279;-64
2023/07/08 21:19:38;;;;;;;11.23;5.60;;;25.60;53.40;;;;;;20911123;28;20215;-64
2023/07/08 21:29:39;;;;;;;9.67;5.53;;;25.40;54.80;;;;;;20910677;28;20232;-64
2023/07/08 21:39:45;;;;;;;11.20;5.00;;;25.10;54.70;;;;;;20911168;28;20212;-63
2023/07/08 21:49:46;;;;;;;8.93;5.33;;;25.00;55.50;;;;;;20925416;28;20231;-65
2023/07/08 21:59:48;;;;;;;8.87;5.33;;;24.70;56.60;;;;;;20924695;28;20671;-66
2023/07/08 22:09:50;;;;;;;9.70;5.20;;;24.50;57.10;;;;;;20924002;28;20244;-64
2023/07/08 22:19:52;;;;;;;11.97;5.53;;;24.50;57.50;;;;;;20923307;28;20216;-69
2023/07/08 22:29:54;;;;;;;9.90;5.43;;;24.30;58.00;;;;;;20922028;28;20318;-69
2023/07/08 22:39:56;;;;;;;9.83;5.63;;;;;;;;;;20922098;28;20204;-63
2023/07/08 22:50:00;;;;;;;8.80;5.77;;;24.10;58.50;;;;;;20919280;28;20259;-66
2023/07/08 23:00:03;;;;;;;7.50;5.70;;;23.80;59.60;;;;;;20919209;28;20646;-66
2023/07/08 23:10:06;;;;;;;13.77;6.17;;;23.60;60.40;;;;;;20919434;28;20608;-63
2023/07/08 23:20:17;;;;;;;8.77;5.60;;;23.50;60.90;;;;;;20918584;28;20212;-63
2023/07/08 23:30:19;;;;;;;8.77;5.47;;;23.20;61.20;;;;;;20918751;28;20318;-68
2023/07/08 23:40:21;;;;;;;9.83;5.73;;;23.20;62.20;;;;;;20921831;28;20635;-72
2023/07/08 23:50:25;;;;;;;10.87;6.20;;;23.00;62.70;;;;;;20924760;28;20236;-71
